createdAt,value
2023-04-13T00:02:19.744Z,21.38
2023-04-13T00:05:07.666Z,18.85
2023-04-13T00:07:54.497Z,19.63
2023-04-13T00:10:41.805Z,21.58
2023-04-13T00:13:27.808Z,17.65
2023-04-13T00:16:15.914Z,19.80
2023-04-13T00:19:02.118Z,20.88
2023-04-13T00:21:48.236Z,20.50
2023-04-13T00:24:34.313Z,19.13
2023-04-13T00:27:20.501Z,21.10
2023-04-13T00:30:08.030Z,20.80
2023-04-13T00:32:53.579Z,23.58
2023-04-13T00:35:40.044Z,17.80
2023-04-13T00:38:27.340Z,17.58
2023-04-13T00:41:13.097Z,19.55
2023-04-13T00:43:59.491Z,17.05
2023-04-13T00:46:48.284Z,17.67
2023-04-13T00:49:34.942Z,22.95
2023-04-13T00:52:21.438Z,21.05
2023-04-13T00:55:07.807Z,21.63
2023-04-13T00:57:53.589Z,25.05
2023-04-13T01:00:43.081Z,20.25
2023-04-13T01:03:29.845Z,21.42
2023-04-13T01:06:42.143Z,23.02
2023-04-13T01:09:42.392Z,18.23
2023-04-13T01:12:38.530Z,18.17
2023-04-13T01:15:25.970Z,16.38
2023-04-13T01:18:15.620Z,17.42
2023-04-13T01:21:02.693Z,17.08
2023-04-13T01:24:22.727Z,17.27
2023-04-13T01:27:13.064Z,16.10
2023-04-13T01:29:59.025Z,18.02
2023-04-13T01:32:45.736Z,16.42
2023-04-13T01:35:31.975Z,19.58
2023-04-13T01:38:24.512Z,18.85
2023-04-13T01:41:11.999Z,16.48
2023-04-13T01:44:03.007Z,17.42
2023-04-13T01:46:56.232Z,18.02
2023-04-13T01:50:45.434Z,18.42
2023-04-13T01:53:44.820Z,16.33
2023-04-13T01:56:34.043Z,17.52
2023-04-13T01:59:22.551Z,21.67
2023-04-13T02:02:08.180Z,23.92
2023-04-13T02:04:54.079Z,19.00
2023-04-13T02:07:40.328Z,18.67
2023-04-13T02:10:26.573Z,18.17
2023-04-13T02:13:13.984Z,18.48
2023-04-13T02:15:59.330Z,18.00
2023-04-13T02:18:46.573Z,14.40
2023-04-13T02:21:32.154Z,16.05
2023-04-13T02:24:17.494Z,16.77
2023-04-13T02:27:04.237Z,20.83
2023-04-13T02:29:52.532Z,17.42
2023-04-13T02:32:41.152Z,18.67
2023-04-13T02:35:27.427Z,18.25
2023-04-13T02:38:12.701Z,13.55
2023-04-13T02:41:02.243Z,19.23
2023-04-13T02:43:50.222Z,17.55
2023-04-13T02:46:37.225Z,17.77
2023-04-13T02:49:28.681Z,20.77
2023-04-13T02:52:23.280Z,22.13
2023-04-13T02:55:15.891Z,22.17
2023-04-13T02:58:09.434Z,24.10
2023-04-13T03:00:55.670Z,19.17
2023-04-13T03:03:43.037Z,15.68
2023-04-13T03:06:28.751Z,17.88
2023-04-13T03:09:18.340Z,24.27
2023-04-13T03:15:05.233Z,18.65
2023-04-13T03:17:50.730Z,18.30
2023-04-13T03:20:41.948Z,29.42
2023-04-13T03:23:27.289Z,26.40
2023-04-13T03:26:12.719Z,30.88
2023-04-13T03:28:58.632Z,33.97
2023-04-13T03:31:45.978Z,20.58
2023-04-13T03:34:31.886Z,19.33
2023-04-13T03:37:21.107Z,19.67
2023-04-13T03:40:13.148Z,25.75
2023-04-13T03:43:07.123Z,30.88
2023-04-13T03:45:56.486Z,23.55
2023-04-13T03:48:42.431Z,21.67
2023-04-13T03:51:31.743Z,17.60
2023-04-13T03:54:18.384Z,21.65
2023-04-13T03:57:04.670Z,21.67
2023-04-13T03:59:52.214Z,22.90
2023-04-13T04:02:47.308Z,29.58
2023-04-13T04:05:40.493Z,23.25
2023-04-13T04:08:25.898Z,19.85
2023-04-13T04:11:14.708Z,21.20
2023-04-13T04:14:01.439Z,24.05
2023-04-13T04:16:47.085Z,17.63
2023-04-13T04:19:34.502Z,28.15
2023-04-13T04:22:19.806Z,27.25
2023-04-13T04:25:05.854Z,23.20
2023-04-13T04:27:58.192Z,25.33
2023-04-13T04:30:45.740Z,24.05
2023-04-13T04:33:35.360Z,22.83
2023-04-13T04:36:21.404Z,22.40
2023-04-13T04:42:11.003Z,25.02
2023-04-13T04:44:57.833Z,21.92
2023-04-13T04:47:49.810Z,24.25
2023-04-13T04:50:40.123Z,20.95
2023-04-13T04:53:30.119Z,22.65
2023-04-13T04:56:16.225Z,25.33
2023-04-13T04:59:06.713Z,20.52
2023-04-13T05:02:04.622Z,23.38
2023-04-13T05:04:53.147Z,22.90
2023-04-13T05:07:39.782Z,23.15
2023-04-13T05:10:28.701Z,23.42
2023-04-13T05:13:16.869Z,18.55
2023-04-13T05:16:11.025Z,23.23
2023-04-13T05:18:58.290Z,18.25
2023-04-13T05:22:10.535Z,16.85
2023-04-13T05:25:03.092Z,21.02
2023-04-13T05:27:48.677Z,19.13
2023-04-13T05:30:35.523Z,21.42
2023-04-13T05:33:23.777Z,18.00
2023-04-13T05:36:14.003Z,18.90
2023-04-13T05:39:02.586Z,29.65
2023-04-13T05:41:49.253Z,29.60
2023-04-13T05:44:36.306Z,28.23
2023-04-13T05:47:24.103Z,19.98
2023-04-13T05:50:14.967Z,19.55
2023-04-13T05:53:01.499Z,18.05
2023-04-13T05:55:55.256Z,16.58
2023-04-13T05:58:40.872Z,17.30
2023-04-13T06:01:48.356Z,16.13
2023-04-13T06:04:36.327Z,19.58
2023-04-13T06:07:23.314Z,16.90
2023-04-13T06:10:09.129Z,22.02
2023-04-13T06:12:54.762Z,21.70
2023-04-13T06:15:40.456Z,19.98
2023-04-13T06:18:28.904Z,16.83
2023-04-13T06:21:14.634Z,16.02
2023-04-13T06:24:00.321Z,18.70
2023-04-13T06:26:56.572Z,19.10
2023-04-13T06:29:42.415Z,20.52
2023-04-13T06:32:29.856Z,19.30
2023-04-13T06:35:17.353Z,17.95
2023-04-13T06:38:07.426Z,19.97
2023-04-13T06:41:05.704Z,16.20
2023-04-13T06:43:54.724Z,21.55
2023-04-13T06:46:47.399Z,16.92
2023-04-13T06:49:34.130Z,18.20
2023-04-13T06:52:21.050Z,18.45
2023-04-13T06:55:07.880Z,17.48
2023-04-13T06:57:57.324Z,15.45
2023-04-13T07:00:42.683Z,16.70
2023-04-13T07:03:28.394Z,14.82
2023-04-13T07:06:14.377Z,16.73
2023-04-13T07:09:04.347Z,14.85
2023-04-13T07:11:51.066Z,16.20
2023-04-13T07:14:40.991Z,13.43
2023-04-13T07:17:29.057Z,15.48
2023-04-13T07:20:14.621Z,13.35
2023-04-13T07:23:00.731Z,14.07
2023-04-13T07:25:51.230Z,15.40
2023-04-13T07:28:43.088Z,13.70
2023-04-13T07:31:30.786Z,8.82
2023-04-13T07:34:16.847Z,12.68
2023-04-13T07:37:05.111Z,13.10
2023-04-13T07:39:50.759Z,16.10
2023-04-13T07:42:40.026Z,11.88
2023-04-13T07:45:25.305Z,12.95
2023-04-13T07:48:11.128Z,11.98
2023-04-13T07:50:58.434Z,8.85
2023-04-13T07:53:43.923Z,9.65
2023-04-13T07:56:31.317Z,10.27
2023-04-13T07:59:19.225Z,10.38
2023-04-13T08:02:05.730Z,10.27
2023-04-13T08:04:54.645Z,8.70
2023-04-13T08:07:46.853Z,7.93
2023-04-13T08:10:35.184Z,13.50
2023-04-13T08:13:23.975Z,7.63
2023-04-13T08:16:10.419Z,5.10
2023-04-13T08:18:57.580Z,5.05
2023-04-13T08:21:43.384Z,5.75
2023-04-13T08:24:29.282Z,5.90
2023-04-13T08:27:15.179Z,3.65
2023-04-13T08:30:02.535Z,5.97
2023-04-13T08:33:00.283Z,5.20
2023-04-13T08:35:46.521Z,5.80
2023-04-13T08:38:35.587Z,3.05
2023-04-13T08:41:24.158Z,3.47
2023-04-13T08:44:13.782Z,3.25
2023-04-13T08:47:04.259Z,3.90
2023-04-13T08:49:54.198Z,3.47
2023-04-13T08:52:49.380Z,7.13
2023-04-13T08:55:43.571Z,4.15
2023-04-13T08:58:34.947Z,2.97
2023-04-13T09:01:21.935Z,3.70
2023-04-13T09:04:10.853Z,2.90
2023-04-13T09:09:48.595Z,2.88
2023-04-13T09:12:34.997Z,3.42
2023-04-13T09:15:22.625Z,3.83
2023-04-13T09:18:31.760Z,4.70
2023-04-13T09:21:37.407Z,3.00
2023-04-13T09:24:23.117Z,3.97
2023-04-13T09:27:23.201Z,4.00
2023-04-13T09:30:12.709Z,6.53
2023-04-13T09:33:05.946Z,5.10
2023-04-13T09:35:52.076Z,4.97
2023-04-13T09:38:37.765Z,3.38
2023-04-13T09:41:36.549Z,4.18
2023-04-13T09:44:28.625Z,4.43
2023-04-13T09:47:15.533Z,4.55
2023-04-13T09:50:04.766Z,2.20
2023-04-13T09:53:05.246Z,4.45
2023-04-13T09:56:00.670Z,4.53
2023-04-13T09:58:48.257Z,5.22
2023-04-13T10:01:34.463Z,5.78
2023-04-13T10:04:21.245Z,2.95
2023-04-13T10:07:07.082Z,2.22
2023-04-13T10:09:55.964Z,3.53
2023-04-13T10:12:49.590Z,3.05
2023-04-13T10:16:09.916Z,2.60
2023-04-13T10:19:03.738Z,2.28
2023-04-13T10:21:52.609Z,1.95
2023-04-13T10:24:41.650Z,3.20
2023-04-13T10:27:28.392Z,3.03
2023-04-13T10:30:17.801Z,2.60
2023-04-13T10:33:09.499Z,4.43
2023-04-13T10:36:02.391Z,3.35
2023-04-13T10:38:48.067Z,5.40
2023-04-13T10:41:34.453Z,3.78
2023-04-13T10:44:23.786Z,2.97
2023-04-13T10:47:09.932Z,4.47
2023-04-13T10:49:55.829Z,2.65
2023-04-13T10:52:41.412Z,3.58
2023-04-13T10:55:30.077Z,4.20
2023-04-13T10:58:19.644Z,4.93
2023-04-13T11:01:06.297Z,3.28
2023-04-13T11:04:04.563Z,8.25
2023-04-13T11:06:53.187Z,2.70
2023-04-13T11:09:39.296Z,5.82
2023-04-13T11:12:25.368Z,2.60
2023-04-13T11:15:11.543Z,2.50
2023-04-13T11:17:59.232Z,3.35
2023-04-13T11:20:44.588Z,5.05
2023-04-13T11:23:34.453Z,2.88
2023-04-13T11:26:38.588Z,2.67
2023-04-13T11:29:24.292Z,3.63
2023-04-13T11:32:18.895Z,3.80
2023-04-13T11:35:12.687Z,2.28
2023-04-13T11:37:59.700Z,6.63
2023-04-13T11:40:48.426Z,5.00
2023-04-13T11:43:34.179Z,5.50
2023-04-13T11:46:25.541Z,2.50
2023-04-13T11:49:11.480Z,3.85
2023-04-13T11:51:58.157Z,4.22
2023-04-13T11:54:44.882Z,2.78
2023-04-13T11:57:34.015Z,3.65
2023-04-13T12:00:27.470Z,8.52
2023-04-13T12:03:34.444Z,2.53
2023-04-13T12:06:20.902Z,4.22
2023-04-13T12:09:10.610Z,6.88
2023-04-13T12:12:20.553Z,2.77
2023-04-13T12:15:18.050Z,4.43
2023-04-13T12:18:15.634Z,6.00
2023-04-13T12:21:06.039Z,6.15
2023-04-13T12:23:59.489Z,3.40
2023-04-13T12:29:37.942Z,3.30
2023-04-13T12:32:25.125Z,3.75
2023-04-13T12:35:10.929Z,3.58
2023-04-13T12:37:56.826Z,5.20
2023-04-13T12:40:42.449Z,4.60
2023-04-13T12:43:28.905Z,4.07
2023-04-13T12:46:14.677Z,5.38
2023-04-13T12:49:00.616Z,3.28
2023-04-13T12:51:46.573Z,4.38
2023-04-13T12:54:32.521Z,4.18
2023-04-13T12:57:18.198Z,2.95
2023-04-13T13:00:10.355Z,3.80
2023-04-13T13:03:10.155Z,4.50
2023-04-13T13:05:58.754Z,5.90
2023-04-13T13:08:47.180Z,4.30
2023-04-13T13:11:34.519Z,3.28
2023-04-13T13:14:22.990Z,3.33
2023-04-13T13:17:08.626Z,3.15
2023-04-13T13:19:55.616Z,3.20
2023-04-13T13:22:42.242Z,2.45
2023-04-13T13:25:27.944Z,2.08
2023-04-13T13:28:15.278Z,3.30
2023-04-13T13:31:01.699Z,3.17
2023-04-13T13:33:48.930Z,4.13
2023-04-13T13:36:34.881Z,3.90
2023-04-13T13:39:31.309Z,5.07
2023-04-13T13:42:17.356Z,3.63
2023-04-13T13:45:02.737Z,3.08
2023-04-13T13:47:52.168Z,4.63
2023-04-13T13:50:39.648Z,4.18
2023-04-13T13:53:28.066Z,3.17
2023-04-13T13:56:14.496Z,3.83
2023-04-13T13:59:00.376Z,3.50
2023-04-13T14:01:47.108Z,5.03
2023-04-13T14:04:33.225Z,6.85
2023-04-13T14:07:18.737Z,2.83
2023-04-13T14:10:05.968Z,3.05
2023-04-13T14:12:54.591Z,3.72
2023-04-13T14:15:40.026Z,4.20
2023-04-13T14:18:27.867Z,2.22
2023-04-13T14:21:16.147Z,5.20
2023-04-13T14:24:02.215Z,2.63
2023-04-13T14:26:48.486Z,2.08
2023-04-13T14:29:34.410Z,4.50
2023-04-13T14:32:26.426Z,2.90
2023-04-13T14:37:57.941Z,2.30
2023-04-13T14:40:49.697Z,2.15
2023-04-13T14:43:39.178Z,3.55
2023-04-13T14:46:27.954Z,2.92
2023-04-13T14:49:16.297Z,2.70
2023-04-13T14:52:02.197Z,4.18
2023-04-13T14:54:47.777Z,3.58
2023-04-13T14:57:33.828Z,2.25
2023-04-13T15:00:26.066Z,4.35
2023-04-13T15:03:13.236Z,4.72
2023-04-13T15:06:03.261Z,2.90
2023-04-13T15:08:49.852Z,2.22
2023-04-13T15:11:37.936Z,2.85
2023-04-13T15:14:24.098Z,3.83
2023-04-13T15:17:09.698Z,5.20
2023-04-13T15:19:56.316Z,10.55
2023-04-13T15:22:41.919Z,22.83
2023-04-13T15:25:27.708Z,7.47
2023-04-13T15:28:14.157Z,7.07
2023-04-13T15:30:59.829Z,2.25
2023-04-13T15:33:45.486Z,1.98
2023-04-13T15:36:31.236Z,2.67
2023-04-13T15:39:16.903Z,2.97
2023-04-13T15:42:02.875Z,2.75
2023-04-13T15:44:48.672Z,6.93
2023-04-13T15:47:34.763Z,5.13
2023-04-13T15:50:20.477Z,5.90
2023-04-13T15:53:06.427Z,4.25
2023-04-13T15:55:52.239Z,13.05
2023-04-13T15:58:37.855Z,5.25
2023-04-13T16:01:23.910Z,8.80
2023-04-13T16:04:10.194Z,13.93
2023-04-13T16:07:11.842Z,9.88
2023-04-13T16:10:01.446Z,11.57
2023-04-13T16:12:50.065Z,19.10
2023-04-13T16:15:37.037Z,17.25
2023-04-13T16:18:26.173Z,10.27
2023-04-13T16:21:12.469Z,21.75
2023-04-13T16:23:58.163Z,21.38
2023-04-13T16:26:45.158Z,22.98
2023-04-13T16:29:32.748Z,46.75
2023-04-13T16:32:18.933Z,35.78
2023-04-13T16:35:04.972Z,34.92
2023-04-13T16:37:50.621Z,37.08
2023-04-13T16:40:36.501Z,29.38
2023-04-13T16:43:21.924Z,26.60
2023-04-13T16:46:07.725Z,33.30
2023-04-13T16:48:53.012Z,34.53
2023-04-13T16:51:38.577Z,35.13
2023-04-13T16:54:23.986Z,39.85
2023-04-13T16:57:09.986Z,43.67
2023-04-13T16:59:57.642Z,55.03
2023-04-13T17:02:43.265Z,39.63
2023-04-13T17:05:28.963Z,55.28
2023-04-13T17:08:16.268Z,43.25
2023-04-13T17:11:04.941Z,59.45
2023-04-13T17:13:51.469Z,42.30
2023-04-13T17:16:37.403Z,28.75
2023-04-13T17:19:23.783Z,29.25
2023-04-13T17:22:10.025Z,20.63
2023-04-13T17:24:56.195Z,25.55
2023-04-13T17:27:41.715Z,17.10
2023-04-13T17:30:28.044Z,33.90
2023-04-13T17:33:14.422Z,53.70
2023-04-13T17:36:00.101Z,32.83
2023-04-13T17:38:45.531Z,39.33
2023-04-13T17:41:30.941Z,39.88
2023-04-13T17:44:16.332Z,24.63
2023-04-13T17:47:01.922Z,23.50
2023-04-13T17:49:47.170Z,21.55
2023-04-13T17:52:32.720Z,19.98
2023-04-13T17:55:18.037Z,49.72
2023-04-13T17:58:04.184Z,22.50
2023-04-13T18:00:49.521Z,13.20
2023-04-13T18:03:35.275Z,20.75
2023-04-13T18:06:20.919Z,16.27
2023-04-13T18:09:07.356Z,18.63
2023-04-13T18:11:52.949Z,12.32
2023-04-13T18:14:38.977Z,13.50
2023-04-13T18:17:26.285Z,13.57
2023-04-13T18:20:12.432Z,12.27
2023-04-13T18:22:57.786Z,4.30
2023-04-13T18:25:43.528Z,7.15
2023-04-13T18:28:29.748Z,7.13
2023-04-13T18:31:15.768Z,10.43
2023-04-13T18:34:01.809Z,10.43
2023-04-13T18:36:47.648Z,4.88
2023-04-13T18:39:33.987Z,5.03
2023-04-13T18:42:19.403Z,6.07
2023-04-13T18:45:06.348Z,8.63
2023-04-13T18:47:52.321Z,6.15
2023-04-13T18:50:38.761Z,6.13
2023-04-13T18:53:25.071Z,7.80
2023-04-13T18:56:14.341Z,16.38
2023-04-13T18:59:00.954Z,13.40
2023-04-13T19:01:47.250Z,10.45
2023-04-13T19:04:35.180Z,10.50
2023-04-13T19:07:22.203Z,13.85
2023-04-13T19:10:08.488Z,14.20
2023-04-13T19:12:54.298Z,9.27
2023-04-13T19:15:39.646Z,9.75
2023-04-13T19:18:25.765Z,8.13
2023-04-13T19:21:11.828Z,11.38
2023-04-13T19:23:58.386Z,6.57
2023-04-13T19:26:44.704Z,6.40
2023-04-13T19:29:31.508Z,5.32
2023-04-13T19:32:17.343Z,11.00
2023-04-13T19:35:03.999Z,9.35
2023-04-13T19:37:50.000Z,6.10
2023-04-13T19:40:35.808Z,8.00
2023-04-13T19:43:23.584Z,8.60
2023-04-13T19:46:09.457Z,14.00
2023-04-13T19:48:58.951Z,8.23
2023-04-13T19:51:44.609Z,10.40
2023-04-13T19:54:30.498Z,9.07
2023-04-13T19:57:16.532Z,13.15
2023-04-13T20:00:02.872Z,8.95
2023-04-13T20:02:52.597Z,6.68
2023-04-13T20:05:39.985Z,8.45
2023-04-13T20:08:25.839Z,11.05
2023-04-13T20:11:11.941Z,19.13
2023-04-13T20:13:57.533Z,12.10
2023-04-13T20:16:43.262Z,14.18
2023-04-13T20:19:28.667Z,18.10
2023-04-13T20:22:14.284Z,15.57
2023-04-13T20:24:59.610Z,18.85
2023-04-13T20:27:45.753Z,29.27
2023-04-13T20:30:31.492Z,33.97
2023-04-13T20:33:17.226Z,42.55
2023-04-13T20:36:03.287Z,20.50
2023-04-13T20:38:48.960Z,18.20
2023-04-13T20:41:35.554Z,28.42
2023-04-13T20:44:25.989Z,30.10
2023-04-13T20:47:14.636Z,22.10
2023-04-13T20:50:00.588Z,21.92
2023-04-13T20:52:46.432Z,23.65
2023-04-13T20:55:32.404Z,20.60
2023-04-13T20:58:17.792Z,20.40
2023-04-13T21:01:03.593Z,22.77
2023-04-13T21:03:49.979Z,18.35
2023-04-13T21:06:35.384Z,33.97
2023-04-13T21:09:21.082Z,27.45
2023-04-13T21:12:06.653Z,30.60
2023-04-13T21:14:52.379Z,29.95
2023-04-13T21:17:38.188Z,25.23
2023-04-13T21:20:24.370Z,24.20
2023-04-13T21:23:13.820Z,24.77
2023-04-13T21:25:59.083Z,25.42
2023-04-13T21:28:44.444Z,25.55
2023-04-13T21:31:31.322Z,25.00
2023-04-13T21:34:18.244Z,21.48
2023-04-13T21:37:03.772Z,20.35
2023-04-13T21:39:49.698Z,15.05
2023-04-13T21:42:35.016Z,13.63
2023-04-13T21:45:20.792Z,14.10
2023-04-13T21:48:06.422Z,16.95
2023-04-13T21:50:52.785Z,21.08
2023-04-13T21:53:38.923Z,22.17
2023-04-13T21:56:24.532Z,22.13
2023-04-13T21:59:09.944Z,16.30
2023-04-13T22:01:55.592Z,18.27
2023-04-13T22:04:41.398Z,16.75
2023-04-13T22:07:39.392Z,16.85
2023-04-13T22:10:28.243Z,19.17
2023-04-13T22:13:13.779Z,21.48
2023-04-13T22:15:59.384Z,19.95
2023-04-13T22:18:45.063Z,26.15
2023-04-13T22:21:31.427Z,16.50
2023-04-13T22:24:17.121Z,15.90
2023-04-13T22:27:03.508Z,16.08
2023-04-13T22:29:49.399Z,13.60
2023-04-13T22:32:34.989Z,17.65
2023-04-13T22:35:20.611Z,16.58
2023-04-13T22:38:05.998Z,16.58
2023-04-13T22:40:51.353Z,14.82
2023-04-13T22:43:36.938Z,14.55
2023-04-13T22:46:23.056Z,19.05
2023-04-13T22:49:08.577Z,17.58
2023-04-13T22:51:53.763Z,12.65
2023-04-13T22:54:39.579Z,13.00
2023-04-13T22:57:25.770Z,12.13
2023-04-13T23:00:12.128Z,12.77
2023-04-13T23:02:57.612Z,12.70
2023-04-13T23:05:43.857Z,14.32
2023-04-13T23:08:29.496Z,16.23
2023-04-13T23:11:15.138Z,12.85
2023-04-13T23:14:00.740Z,13.25
2023-04-13T23:16:46.576Z,11.77
2023-04-13T23:19:31.955Z,12.95
2023-04-13T23:22:17.336Z,13.82
2023-04-13T23:25:02.798Z,11.27
2023-04-13T23:27:48.003Z,11.85
2023-04-13T23:30:33.429Z,11.80
2023-04-13T23:33:21.124Z,14.98
2023-04-13T23:36:07.272Z,13.80
2023-04-13T23:38:53.082Z,9.85
2023-04-13T23:41:38.460Z,13.18
2023-04-13T23:44:23.902Z,10.60
2023-04-13T23:47:09.380Z,15.68
2023-04-13T23:49:55.751Z,16.20
2023-04-13T23:52:41.351Z,8.50
2023-04-13T23:55:27.790Z,15.07
2023-04-13T23:58:13.302Z,11.95
